Time;durP1;ratioP1;P1;durP2;ratioP2;P2;SDS_P1;SDS_P2;PMS_P1;PMS_P2;Temp;Humidity;BMP_temperature;BMP_pressure;BME280_temperature;BME280_humidity;BME280_pressure;Samples;Min_cycle;Max_cycle;Signal;HPM_P1;HPM_P2
2024/04/24 00:03:42;;;;;;;4.63;2.10;;;;;;;;;;11004363;26;20030;-65
2024/04/24 00:08:43;;;;;;;1.60;1.50;;;;;;;;;;10982225;26;20037;-63
2024/04/24 00:13:44;;;;;;;1.95;1.50;;;;;;;;;;10981672;26;20003;-64
2024/04/24 00:18:45;;;;;;;2.33;1.70;;;;;;;;;;10989795;26;20047;-65
2024/04/24 00:23:46;;;;;;;1.77;1.63;;;;;;;;;;10980492;26;20025;-64
2024/04/24 00:28:48;;;;;;;1.80;1.55;;;;;;;;;;11047421;26;20029;-65
2024/04/24 00:33:49;;;;;;;3.13;1.80;;;;;;;;;;11056938;26;20005;-64
2024/04/24 00:38:50;;;;;;;5.07;1.77;;;;;;;;;;11056895;26;20436;-62
2024/04/24 00:43:52;;;;;;;2.03;1.63;;;;;;;;;;11053986;26;20037;-64
2024/04/24 00:48:55;;;;;;;1.77;1.50;;;;;;;;;;11051672;26;20012;-64
2024/04/24 00:53:56;;;;;;;1.70;1.60;;;;;;;;;;11055168;26;20115;-64
2024/04/24 00:58:58;;;;;;;1.95;1.75;;;;;;;;;;11051772;26;20097;-65
2024/04/24 01:03:59;;;;;;;1.48;1.38;;;;;;;;;;11023683;26;20086;-64
2024/04/24 01:09:00;;;;;;;1.60;1.50;;;;;;;;;;11050269;26;20009;-64
2024/04/24 01:14:02;;;;;;;2.47;1.63;;;;;;;;;;11050817;26;20052;-65
2024/04/24 01:19:48;;;;;;;1.75;1.52;;;;;;;;;;11049424;26;20048;-65
2024/04/24 01:25:22;;;;;;;3.33;1.40;;;;;;;;;;11010652;26;20009;-58
2024/04/24 01:30:23;;;;;;;4.57;1.70;;;;;;;;;;11026638;26;20606;-59
2024/04/24 01:35:24;;;;;;;2.17;1.60;;;;;;;;;;11041761;26;20045;-59
2024/04/24 01:40:25;;;;;;;1.65;1.55;;;;;;;;;;11039943;26;20076;-58
2024/04/24 01:45:26;;;;;;;1.58;1.48;;;;;;;;;;11051343;26;20033;-58
2024/04/24 01:50:28;;;;;;;1.40;1.30;;;;;;;;;;11054688;26;20033;-59
2024/04/24 01:55:29;;;;;;;1.50;1.40;;;;;;;;;;11050007;26;20107;-59
2024/04/24 02:00:30;;;;;;;1.50;1.40;;;;;;;;;;11049538;26;20029;-59
2024/04/24 02:05:31;;;;;;;2.15;1.60;;;;;;;;;;11049390;26;20449;-59
2024/04/24 02:10:32;;;;;;;1.50;1.40;;;;;;;;;;11080392;26;20024;-58
2024/04/24 02:15:34;;;;;;;1.63;1.45;;;;;;;;;;11051174;26;20028;-58
2024/04/24 02:20:35;;;;;;;1.42;1.33;;;;;;;;;;11051088;26;20004;-59
2024/04/24 02:25:36;;;;;;;2.15;1.73;;;;;;;;;;11048231;26;20036;-58
2024/04/24 02:30:38;;;;;;;2.25;1.83;;;;;;;;;;11053210;26;20005;-58
2024/04/24 02:35:39;;;;;;;2.15;1.63;;;;;;;;;;11048352;26;20001;-59
2024/04/24 02:40:40;;;;;;;1.58;1.48;;;;;;;;;;11050166;26;20012;-63
2024/04/24 02:45:41;;;;;;;1.73;1.52;;;;;;;;;;11050015;26;20008;-60
2024/04/24 02:50:42;;;;;;;1.55;1.45;;;;;;;;;;11050599;26;20104;-59
2024/04/24 02:55:44;;;;;;;3.80;1.48;;;;;;;;;;11048311;26;20341;-59
2024/04/24 03:00:45;;;;;;;2.03;1.58;;;;;;;;;;11074711;26;20075;-59
2024/04/24 03:05:46;;;;;;;1.95;1.85;;;;;;;;;;11045965;26;20317;-59
2024/04/24 03:10:47;;;;;;;1.60;1.50;;;;;;;;;;11049355;26;20397;-59
2024/04/24 03:15:48;;;;;;;1.73;1.63;;;;;;;;;;11045768;26;20107;-60
2024/04/24 03:20:49;;;;;;;2.08;1.85;;;;;;;;;;11049340;26;19997;-59
2024/04/24 03:25:50;;;;;;;1.55;1.45;;;;;;;;;;11075483;26;20329;-58
2024/04/24 03:30:52;;;;;;;1.58;1.48;;;;;;;;;;11063986;26;20012;-59
2024/04/24 03:35:53;;;;;;;1.75;1.65;;;;;;;;;;11106413;26;20054;-60
2024/04/24 03:40:54;;;;;;;1.95;1.75;;;;;;;;;;11110221;26;20048;-59
2024/04/24 03:45:55;;;;;;;1.70;1.60;;;;;;;;;;11100498;26;20001;-58
2024/04/24 03:50:56;;;;;;;1.63;1.50;;;;;;;;;;11087403;26;20015;-58
2024/04/24 03:55:57;;;;;;;1.38;1.27;;;;;;;;;;11066887;26;20079;-58
2024/04/24 04:00:59;;;;;;;1.58;1.48;;;;;;;;;;11011576;26;20004;-58
2024/04/24 04:06:00;;;;;;;1.92;1.42;;;;;;;;;;11054748;26;20008;-58
2024/04/24 04:11:02;;;;;;;1.95;1.58;;;;;;;;;;11054153;26;20001;-60
2024/04/24 04:16:03;;;;;;;1.40;1.30;;;;;;;;;;11055360;26;20013;-60
2024/04/24 04:21:04;;;;;;;2.03;1.60;;;;;;;;;;11063327;26;20040;-59
2024/04/24 04:26:05;;;;;;;1.77;1.55;;;;;;;;;;11049686;26;20108;-59
2024/04/24 04:31:06;;;;;;;1.60;1.50;;;;;;;;;;11055214;26;20029;-59
2024/04/24 04:36:08;;;;;;;1.52;1.42;;;;;;;;;;11055861;26;20462;-60
2024/04/24 04:41:09;;;;;;;1.52;1.42;;;;;;;;;;11053739;26;20005;-59
2024/04/24 04:46:10;;;;;;;1.60;1.50;;;;;;;;;;11067510;26;20048;-59
2024/04/24 04:51:11;;;;;;;1.60;1.48;;;;;;;;;;11054651;26;20460;-59
2024/04/24 04:56:12;;;;;;;1.70;1.60;;;;;;;;;;11053910;26;20095;-59
2024/04/24 05:01:13;;;;;;;2.50;1.50;;;;;;;;;;11052461;26;20033;-59
2024/04/24 05:06:14;;;;;;;1.48;1.38;;;;;;;;;;11052466;26;20066;-57
2024/04/24 05:11:15;;;;;;;1.95;1.70;;;;;;;;;;11055087;26;20008;-58
2024/04/24 05:16:16;;;;;;;3.67;1.40;;;;;;;;;;11082039;26;20029;-63
2024/04/24 05:21:18;;;;;;;1.55;1.45;;;;;;;;;;11053509;26;20012;-60
2024/04/24 05:31:39;;;;;;;1.90;1.75;;;;;;;;;;11090266;26;20012;-59
2024/04/24 05:36:40;;;;;;;2.42;1.80;;;;;;;;;;11111308;26;20463;-60
2024/04/24 05:41:41;;;;;;;2.10;1.88;;;;;;;;;;11078656;26;20033;-59
2024/04/24 05:46:42;;;;;;;4.93;1.85;;;;;;;;;;11098840;26;20480;-62
2024/04/24 05:51:43;;;;;;;2.15;1.88;;;;;;;;;;11074598;26;20299;-59
2024/04/24 05:56:44;;;;;;;2.53;1.60;;;;;;;;;;11063540;26;19996;-60
2024/04/24 06:01:46;;;;;;;1.65;1.55;;;;;;;;;;11089030;26;20051;-60
2024/04/24 06:06:47;;;;;;;1.98;1.80;;;;;;;;;;11029382;26;20033;-59
2024/04/24 06:11:48;;;;;;;1.95;1.85;;;;;;;;;;11070747;26;20495;-58
2024/04/24 06:16:49;;;;;;;1.98;1.88;;;;;;;;;;11074127;26;20008;-58
2024/04/24 06:21:50;;;;;;;2.55;2.00;;;;;;;;;;11050393;26;20020;-57
2024/04/24 06:26:51;;;;;;;2.80;1.85;;;;;;;;;;11051276;26;20373;-58
2024/04/24 06:31:52;;;;;;;2.47;1.70;;;;;;;;;;11051381;26;20037;-58
2024/04/24 06:36:53;;;;;;;2.08;1.88;;;;;;;;;;11050848;26;20005;-58
2024/04/24 06:41:55;;;;;;;2.88;1.80;;;;;;;;;;11052525;26;20065;-58
2024/04/24 06:46:56;;;;;;;2.55;1.85;;;;;;;;;;11060257;26;20029;-59
2024/04/24 06:51:57;;;;;;;2.35;2.00;;;;;;;;;;11049110;26;20009;-59
2024/04/24 06:56:58;;;;;;;4.35;1.73;;;;;;;;;;11047843;26;20443;-59
2024/04/24 07:01:59;;;;;;;1.77;1.67;;;;;;;;;;11046227;26;20099;-60
2024/04/24 07:07:00;;;;;;;2.45;1.95;;;;;;;;;;11047848;26;19997;-62
2024/04/24 07:12:01;;;;;;;1.85;1.75;;;;;;;;;;11047316;26;20033;-59
2024/04/24 07:17:03;;;;;;;1.80;1.70;;;;;;;;;;11047457;26;20005;-59
2024/04/24 07:22:04;;;;;;;2.38;2.10;;;;;;;;;;11030661;26;20037;-62
2024/04/24 07:27:05;;;;;;;2.92;1.60;;;;;;;;;;11099609;26;20005;-63
2024/04/24 07:32:06;;;;;;;1.98;1.77;;;;;;;;;;11078653;26;20111;-58
2024/04/24 07:37:07;;;;;;;2.08;1.67;;;;;;;;;;11069542;26;20040;-58
2024/04/24 07:42:09;;;;;;;2.38;1.70;;;;;;;;;;11055667;26;20074;-57
2024/04/24 07:47:11;;;;;;;3.92;1.98;;;;;;;;;;11078586;26;20467;-59
2024/04/24 07:52:13;;;;;;;6.47;1.95;;;;;;;;;;11069382;26;20493;-58
2024/04/24 07:57:14;;;;;;;3.22;2.10;;;;;;;;;;11055008;26;20016;-59
2024/04/24 08:02:15;;;;;;;1.73;1.63;;;;;;;;;;11048098;26;20013;-58
2024/04/24 08:07:17;;;;;;;2.65;2.10;;;;;;;;;;11049000;26;20097;-58
2024/04/24 08:12:18;;;;;;;2.00;1.85;;;;;;;;;;11062278;26;20001;-59
2024/04/24 08:17:19;;;;;;;5.45;2.10;;;;;;;;;;11058257;26;19997;-58
2024/04/24 08:22:21;;;;;;;7.22;2.30;;;;;;;;;;11079508;26;20484;-57
2024/04/24 08:27:23;;;;;;;6.18;2.00;;;;;;;;;;11053059;26;20005;-59
2024/04/24 08:32:24;;;;;;;2.17;1.80;;;;;;;;;;11063486;26;20368;-57
2024/04/24 08:37:25;;;;;;;3.20;2.03;;;;;;;;;;11043679;26;20001;-59
2024/04/24 08:42:27;;;;;;;2.38;2.17;;;;;;;;;;11042323;26;20073;-59
2024/04/24 08:47:29;;;;;;;4.45;2.35;;;;;;;;;;11037970;26;20311;-61
2024/04/24 08:52:31;;;;;;;2.72;2.10;;;;;;;;;;11081371;26;20591;-59
2024/04/24 08:57:33;;;;;;;3.67;2.00;;;;;;;;;;11044479;26;20369;-59
2024/04/24 09:02:44;;;;;;;2.60;2.20;;;;;;;;;;11034929;26;20005;-59
2024/04/24 09:07:46;;;;;;;4.32;2.33;;;;;;;;;;11030983;26;20060;-62
2024/04/24 09:12:48;;;;;;;5.22;1.90;;;;;;;;;;11054105;26;20355;-59
2024/04/24 09:17:49;;;;;;;2.55;1.98;;;;;;;;;;11034569;26;20001;-59
2024/04/24 09:22:50;;;;;;;5.00;2.00;;;;;;;;;;11053494;26;19996;-59
2024/04/24 09:27:54;;;;;;;3.20;2.00;;;;;;;;;;10997202;26;20481;-58
2024/04/24 09:32:56;;;;;;;4.82;2.05;;;;;;;;;;11024220;26;20014;-58
2024/04/24 09:37:57;;;;;;;4.38;2.38;;;;;;;;;;11046915;26;20005;-58
2024/04/24 09:42:59;;;;;;;2.30;1.83;;;;;;;;;;11019502;26;19997;-59
2024/04/24 09:48:00;;;;;;;4.20;2.17;;;;;;;;;;10983431;26;20005;-59
2024/04/24 09:53:01;;;;;;;2.40;1.60;;;;;;;;;;11019712;26;20092;-59
2024/04/24 09:58:07;;;;;;;1.88;1.77;;;;;;;;;;10970840;26;20005;-59
2024/04/24 10:03:10;;;;;;;2.67;2.03;;;;;;;;;;10955064;26;20550;-60
2024/04/24 10:08:19;;;;;;;2.20;2.00;;;;;;;;;;10991037;26;20013;-59
2024/04/24 10:13:21;;;;;;;;;;;;;;;;;;10951814;26;20016;-57
2024/04/24 10:18:23;;;;;;;3.10;1.95;;;;;;;;;;10953409;26;19927;-60
2024/04/24 10:23:27;;;;;;;3.85;2.00;;;;;;;;;;10915325;26;20643;-60
2024/04/24 10:28:28;;;;;;;2.65;2.08;;;;;;;;;;10982507;26;20026;-59
2024/04/24 10:33:30;;;;;;;2.60;1.85;;;;;;;;;;10978762;26;20041;-60
2024/04/24 10:38:33;;;;;;;2.17;1.80;;;;;;;;;;10979722;26;20026;-59
2024/04/24 10:43:36;;;;;;;1.80;1.70;;;;;;;;;;10977886;26;20409;-59
2024/04/24 10:48:56;;;;;;;1.92;1.70;;;;;;;;;;10978275;26;20087;-59
2024/04/24 10:54:14;;;;;;;2.53;1.83;;;;;;;;;;10979573;26;19998;-59
2024/04/24 10:59:16;;;;;;;2.78;1.85;;;;;;;;;;10978701;26;20544;-59
2024/04/24 11:04:18;;;;;;;2.38;1.60;;;;;;;;;;10978446;26;20438;-59
2024/04/24 11:09:25;;;;;;;3.42;1.55;;;;;;;;;;10978435;26;20016;-59
2024/04/24 11:14:27;;;;;;;3.63;1.63;;;;;;;;;;10940943;26;20017;-59
2024/04/24 11:19:28;;;;;;;2.00;1.75;;;;;;;;;;10979506;26;20001;-59
2024/04/24 11:24:33;;;;;;;1.60;1.50;;;;;;;;;;10994949;26;20005;-59
2024/04/24 11:29:39;;;;;;;1.58;1.48;;;;;;;;;;11017010;26;20000;-59
2024/04/24 11:34:40;;;;;;;2.30;1.70;;;;;;;;;;11052693;26;20474;-59
2024/04/24 11:39:42;;;;;;;1.55;1.40;;;;;;;;;;11016750;26;20047;-60
2024/04/24 11:44:43;;;;;;;3.47;1.50;;;;;;;;;;11041667;26;20020;-59
2024/04/24 11:49:55;;;;;;;3.42;1.73;;;;;;;;;;11042844;26;20100;-63
2024/04/24 11:54:56;;;;;;;1.70;1.60;;;;;;;;;;11024584;26;19997;-63
2024/04/24 12:00:01;;;;;;;5.88;1.42;;;;;;;;;;11045638;26;20005;-62
2024/04/24 12:05:04;;;;;;;3.10;1.40;;;;;;;;;;11048061;26;20050;-59
2024/04/24 12:10:06;;;;;;;1.63;1.52;;;;;;;;;;11056925;26;20001;-62
2024/04/24 12:15:11;;;;;;;2.67;1.55;;;;;;;;;;11056674;26;20001;-62
2024/04/24 12:20:13;;;;;;;2.17;1.42;;;;;;;;;;11055449;26;20095;-60
2024/04/24 12:25:14;;;;;;;1.95;1.50;;;;;;;;;;11015386;26;20056;-61
2024/04/24 12:30:15;;;;;;;1.92;1.67;;;;;;;;;;10983390;26;20049;-59
2024/04/24 12:35:16;;;;;;;1.70;1.58;;;;;;;;;;11010341;26;20080;-60
2024/04/24 12:40:18;;;;;;;1.50;1.40;;;;;;;;;;11006965;26;20101;-60
2024/04/24 12:45:19;;;;;;;1.52;1.42;;;;;;;;;;10984032;26;20085;-61
2024/04/24 12:50:20;;;;;;;2.90;1.58;;;;;;;;;;10965167;26;19997;-64
2024/04/24 12:55:21;;;;;;;1.75;1.40;;;;;;;;;;10996971;26;20036;-62
2024/04/24 13:00:24;;;;;;;1.45;1.38;;;;;;;;;;10996402;26;19998;-64
2024/04/24 13:05:25;;;;;;;1.35;1.25;;;;;;;;;;10974839;26;20013;-63
2024/04/24 13:10:26;;;;;;;1.50;1.25;;;;;;;;;;10991664;26;20045;-59
2024/04/24 13:15:27;;;;;;;2.35;1.40;;;;;;;;;;11008597;26;20113;-59
2024/04/24 13:20:29;;;;;;;1.45;1.35;;;;;;;;;;10989694;26;20365;-63
2024/04/24 13:25:30;;;;;;;1.65;1.40;;;;;;;;;;10993740;21;20029;-46
2024/04/24 13:30:32;;;;;;;1.70;1.60;;;;;;;;;;11008308;26;20084;-46
2024/04/24 13:35:35;;;;;;;1.55;1.38;;;;;;;;;;10974454;26;20005;-49
2024/04/24 13:40:37;;;;;;;2.58;1.50;;;;;;;;;;11008407;26;20025;-45
2024/04/24 13:45:38;;;;;;;1.30;1.20;;;;;;;;;;11021574;26;20160;-50
2024/04/24 13:50:39;;;;;;;1.80;1.55;;;;;;;;;;11021423;26;20334;-50
2024/04/24 13:55:40;;;;;;;1.40;1.30;;;;;;;;;;11017476;26;20108;-49
2024/04/24 14:00:41;;;;;;;1.63;1.52;;;;;;;;;;10999614;26;20729;-47
2024/04/24 14:05:48;;;;;;;1.75;1.50;;;;;;;;;;11015446;26;20006;-52
2024/04/24 14:10:49;;;;;;;1.40;1.30;;;;;;;;;;10982745;26;20100;-48
2024/04/24 14:15:51;;;;;;;1.55;1.30;;;;;;;;;;10986226;26;20569;-45
2024/04/24 14:20:52;;;;;;;1.45;1.35;;;;;;;;;;10993022;26;20129;-49
2024/04/24 14:25:53;;;;;;;1.73;1.10;;;;;;;;;;11009212;26;20045;-47
2024/04/24 14:30:54;;;;;;;1.50;1.40;;;;;;;;;;10989513;26;20325;-45
2024/04/24 14:35:55;;;;;;;1.40;1.30;;;;;;;;;;10991077;26;20072;-50
2024/04/24 14:40:56;;;;;;;1.58;1.23;;;;;;;;;;10996748;26;20138;-48
2024/04/24 14:45:58;;;;;;;2.13;1.30;;;;;;;;;;11017689;26;20021;-49
2024/04/24 14:50:59;;;;;;;1.52;1.33;;;;;;;;;;10988497;26;20398;-50
2024/04/24 14:56:00;;;;;;;1.20;1.13;;;;;;;;;;10989018;26;20001;-48
2024/04/24 15:01:04;;;;;;;1.50;1.38;;;;;;;;;;11001040;26;20429;-49
2024/04/24 15:06:05;;;;;;;1.30;1.20;;;;;;;;;;10983027;26;20028;-49
2024/04/24 15:11:06;;;;;;;1.38;1.20;;;;;;;;;;11003727;26;20084;-51
2024/04/24 15:16:07;;;;;;;1.35;1.25;;;;;;;;;;10980857;26;20546;-50
2024/04/24 15:21:08;;;;;;;1.30;1.20;;;;;;;;;;11002143;26;20042;-45
2024/04/24 15:26:13;;;;;;;1.55;1.40;;;;;;;;;;10975010;26;20006;-50
2024/04/24 15:31:14;;;;;;;1.30;1.20;;;;;;;;;;10971506;26;20024;-48
2024/04/24 15:36:16;;;;;;;1.08;0.90;;;;;;;;;;10982991;26;20461;-50
2024/04/24 15:41:17;;;;;;;1.30;1.20;;;;;;;;;;10978997;26;20009;-50
2024/04/24 15:46:18;;;;;;;1.48;1.13;;;;;;;;;;10997950;26;20053;-46
2024/04/24 15:51:19;;;;;;;1.35;1.30;;;;;;;;;;10997020;26;20100;-50
2024/04/24 15:56:20;;;;;;;1.13;1.10;;;;;;;;;;10985561;26;20090;-48
2024/04/24 16:01:21;;;;;;;1.30;1.20;;;;;;;;;;11011974;26;20723;-49
2024/04/24 16:06:22;;;;;;;3.67;1.33;;;;;;;;;;10999378;26;20071;-48
2024/04/24 16:11:24;;;;;;;1.45;1.25;;;;;;;;;;11038453;26;20016;-50
2024/04/24 16:16:25;;;;;;;1.20;1.10;;;;;;;;;;10999219;26;20033;-48
2024/04/24 16:21:27;;;;;;;1.45;1.33;;;;;;;;;;10998191;26;20052;-50
2024/04/24 16:26:28;;;;;;;1.52;1.42;;;;;;;;;;10985694;26;20200;-47
2024/04/24 16:31:29;;;;;;;1.23;1.13;;;;;;;;;;10992195;26;20044;-49
2024/04/24 16:36:30;;;;;;;1.15;1.15;;;;;;;;;;11009172;26;20020;-46
2024/04/24 16:41:31;;;;;;;1.38;1.27;;;;;;;;;;10989587;26;20454;-49
2024/04/24 16:46:32;;;;;;;1.00;1.00;;;;;;;;;;10974365;26;20006;-48
2024/04/24 16:51:39;;;;;;;1.23;1.20;;;;;;;;;;11028246;26;20009;-48
2024/04/24 16:56:40;;;;;;;1.63;1.48;;;;;;;;;;11018756;26;20008;-50
2024/04/24 17:01:42;;;;;;;1.10;1.10;;;;;;;;;;11002935;26;20372;-48
2024/04/24 17:06:43;;;;;;;2.10;1.50;;;;;;;;;;11026319;26;20367;-51
2024/04/24 17:11:44;;;;;;;1.30;1.20;;;;;;;;;;10985770;26;20016;-51
2024/04/24 17:16:46;;;;;;;1.15;1.10;;;;;;;;;;10998045;26;20001;-48
2024/04/24 17:21:47;;;;;;;2.30;1.00;;;;;;;;;;10981395;26;19997;-51
2024/04/24 17:26:51;;;;;;;1.33;1.23;;;;;;;;;;10984294;26;20421;-47
2024/04/24 17:31:52;;;;;;;1.40;1.30;;;;;;;;;;10992651;26;20011;-49
2024/04/24 17:36:54;;;;;;;1.20;1.10;;;;;;;;;;10982775;26;20001;-46
2024/04/24 17:41:55;;;;;;;2.35;1.42;;;;;;;;;;10999502;26;20430;-47
2024/04/24 17:46:56;;;;;;;2.47;1.02;;;;;;;;;;10974579;26;20448;-50
2024/04/24 17:51:58;;;;;;;2.53;1.20;;;;;;;;;;10975822;26;19997;-51
2024/04/24 17:56:59;;;;;;;1.38;1.27;;;;;;;;;;11004833;26;20065;-56
2024/04/24 18:02:00;;;;;;;3.17;1.30;;;;;;;;;;10981791;26;20101;-51
2024/04/24 18:07:01;;;;;;;1.70;1.40;;;;;;;;;;10966888;26;20002;-51
2024/04/24 18:12:03;;;;;;;1.65;1.20;;;;;;;;;;10986743;26;20021;-50
2024/04/24 18:17:04;;;;;;;1.73;1.20;;;;;;;;;;10995214;26;20008;-49
2024/04/24 18:22:05;;;;;;;2.90;1.20;;;;;;;;;;10996803;26;20109;-51
2024/04/24 18:27:06;;;;;;;1.42;1.20;;;;;;;;;;10994786;26;20266;-55
2024/04/24 18:32:08;;;;;;;2.45;1.20;;;;;;;;;;10983701;26;20041;-48
2024/04/24 18:37:09;;;;;;;1.80;1.33;;;;;;;;;;10959848;26;20300;-50
2024/04/24 18:42:10;;;;;;;1.35;1.20;;;;;;;;;;10989372;26;20074;-49
2024/04/24 18:47:12;;;;;;;1.23;1.13;;;;;;;;;;10988600;26;19998;-50
2024/04/24 18:52:13;;;;;;;4.20;1.40;;;;;;;;;;10986919;26;20078;-56
2024/04/24 18:57:14;;;;;;;5.55;2.05;;;;;;;;;;11012804;26;20041;-49
2024/04/24 19:02:15;;;;;;;1.65;1.30;;;;;;;;;;10980356;26;20348;-48
2024/04/24 19:07:17;;;;;;;5.72;1.30;;;;;;;;;;10979883;26;20024;-50
2024/04/24 19:12:18;;;;;;;2.72;1.30;;;;;;;;;;10983102;26;20024;-49
2024/04/24 19:17:19;;;;;;;1.83;1.35;;;;;;;;;;11021641;26;20037;-56
2024/04/24 19:22:20;;;;;;;1.30;1.20;;;;;;;;;;10976242;26;20508;-48
2024/04/24 19:27:22;;;;;;;2.53;1.35;;;;;;;;;;11004640;26;20453;-47
2024/04/24 19:32:24;;;;;;;1.77;1.27;;;;;;;;;;11002820;26;20001;-48
2024/04/24 19:37:26;;;;;;;1.40;1.30;;;;;;;;;;10982863;26;20355;-49
2024/04/24 19:42:30;;;;;;;1.30;1.20;;;;;;;;;;11001903;26;20034;-49
2024/04/24 19:47:31;;;;;;;1.55;1.40;;;;;;;;;;11003672;26;20408;-50
2024/04/24 19:52:32;;;;;;;2.17;1.30;;;;;;;;;;10986164;26;20017;-59
2024/04/24 19:57:33;;;;;;;1.40;1.27;;;;;;;;;;11005935;26;20005;-50
2024/04/24 20:02:35;;;;;;;1.45;1.10;;;;;;;;;;10971622;26;20041;-49
2024/04/24 20:07:36;;;;;;;1.10;1.10;;;;;;;;;;10982747;26;20042;-49
2024/04/24 20:12:37;;;;;;;1.33;1.20;;;;;;;;;;11016233;26;20195;-50
2024/04/24 20:17:38;;;;;;;2.38;1.30;;;;;;;;;;11010258;26;19997;-47
2024/04/24 20:22:43;;;;;;;1.05;1.05;;;;;;;;;;10992925;26;20291;-49
2024/04/24 20:27:44;;;;;;;1.30;1.20;;;;;;;;;;10982487;26;20048;-49
2024/04/24 20:32:45;;;;;;;1.40;1.30;;;;;;;;;;10998707;26;20528;-51
2024/04/24 20:37:47;;;;;;;1.85;1.40;;;;;;;;;;11002570;26;20104;-50
2024/04/24 20:42:49;;;;;;;1.30;1.20;;;;;;;;;;11004708;26;20006;-50
2024/04/24 20:47:50;;;;;;;1.73;1.15;;;;;;;;;;10996809;26;20392;-48
2024/04/24 20:52:51;;;;;;;1.25;1.15;;;;;;;;;;11001591;26;20449;-47
2024/04/24 20:57:52;;;;;;;1.50;1.40;;;;;;;;;;11003656;26;20005;-50
2024/04/24 21:02:53;;;;;;;1.35;1.25;;;;;;;;;;10988139;26;20495;-48
2024/04/24 21:07:55;;;;;;;1.52;1.27;;;;;;;;;;10993884;26;20033;-50
2024/04/24 21:12:56;;;;;;;1.52;1.40;;;;;;;;;;10988832;26;20017;-49
2024/04/24 21:17:57;;;;;;;1.30;1.20;;;;;;;;;;10978381;26;20469;-48
2024/04/24 21:22:58;;;;;;;1.42;1.30;;;;;;;;;;10978965;26;20037;-53
2024/04/24 21:27:59;;;;;;;1.30;1.20;;;;;;;;;;10978670;26;20109;-51
2024/04/24 21:33:00;;;;;;;1.25;1.15;;;;;;;;;;10996180;26;20352;-48
2024/04/24 21:38:02;;;;;;;1.17;1.17;;;;;;;;;;10977335;26;20042;-49
2024/04/24 21:43:04;;;;;;;1.52;1.42;;;;;;;;;;10982018;26;20349;-53
2024/04/24 21:48:06;;;;;;;1.10;1.10;;;;;;;;;;10980358;26;20002;-50
2024/04/24 21:53:09;;;;;;;1.52;1.25;;;;;;;;;;10978328;26;20018;-51
2024/04/24 21:58:10;;;;;;;1.30;1.20;;;;;;;;;;10963269;26;20005;-49
2024/04/24 22:03:11;;;;;;;0.90;0.90;;;;;;;;;;10989900;26;19998;-49
2024/04/24 22:08:12;;;;;;;1.42;1.25;;;;;;;;;;10963557;26;20110;-50
2024/04/24 22:13:13;;;;;;;2.20;1.27;;;;;;;;;;10978124;26;20004;-47
2024/04/24 22:18:16;;;;;;;2.05;1.48;;;;;;;;;;10994097;26;20477;-55
2024/04/24 22:23:18;;;;;;;1.20;1.10;;;;;;;;;;10983049;26;20091;-50
2024/04/24 22:28:19;;;;;;;1.38;1.20;;;;;;;;;;10977702;26;20017;-57
2024/04/24 22:33:20;;;;;;;1.02;1.02;;;;;;;;;;10991567;26;20013;-49
2024/04/24 22:38:21;;;;;;;1.23;1.10;;;;;;;;;;10991473;26;20078;-46
2024/04/24 22:43:23;;;;;;;2.35;1.20;;;;;;;;;;10964408;26;20022;-49
2024/04/24 22:48:24;;;;;;;1.55;1.45;;;;;;;;;;11014209;26;20002;-48
2024/04/24 22:53:25;;;;;;;4.70;1.40;;;;;;;;;;10986570;26;20515;-47
2024/04/24 22:58:26;;;;;;;1.65;1.40;;;;;;;;;;10960816;26;20106;-49
2024/04/24 23:03:27;;;;;;;4.97;1.30;;;;;;;;;;10992611;26;20333;-50
2024/04/24 23:08:28;;;;;;;0.90;0.90;;;;;;;;;;10976569;26;20021;-47
2024/04/24 23:13:29;;;;;;;3.97;1.08;;;;;;;;;;10980450;26;20083;-49
2024/04/24 23:18:36;;;;;;;3.05;1.23;;;;;;;;;;10978386;26;20468;-51
2024/04/24 23:23:37;;;;;;;1.10;1.08;;;;;;;;;;11001728;26;20001;-47
2024/04/24 23:28:39;;;;;;;3.85;1.45;;;;;;;;;;10979353;26;19994;-47
2024/04/24 23:33:40;;;;;;;1.13;1.02;;;;;;;;;;11004804;26;20001;-46
2024/04/24 23:38:41;;;;;;;2.80;1.17;;;;;;;;;;11031874;26;20012;-46
2024/04/24 23:43:43;;;;;;;1.17;1.10;;;;;;;;;;11011957;26;20034;-50
2024/04/24 23:48:44;;;;;;;1.20;1.10;;;;;;;;;;10974925;26;20034;-48
2024/04/24 23:53:47;;;;;;;4.50;1.10;;;;;;;;;;10995319;26;20009;-50
2024/04/24 23:58:48;;;;;;;1.75;1.17;;;;;;;;;;10976289;26;20017;-46
